sensor_id;sensor_type;location;lat;lon;timestamp;temperature;humidity
43999;DHT22;51319;52.162;5.302;2023-03-23T00:00:00;11.30;99.90
43999;DHT22;51319;52.162;5.302;2023-03-23T00:02:28;11.30;99.90
43999;DHT22;51319;52.162;5.302;2023-03-23T00:04:55;11.30;99.90
43999;DHT22;51319;52.162;5.302;2023-03-23T00:07:22;11.30;99.90
43999;DHT22;51319;52.162;5.302;2023-03-23T00:09:49;11.30;99.90
43999;DHT22;51319;52.162;5.302;2023-03-23T00:12:30;11.30;99.90
43999;DHT22;51319;52.162;5.302;2023-03-23T00:15:00;11.30;99.90
43999;DHT22;51319;52.162;5.302;2023-03-23T00:17:27;11.30;99.90
43999;DHT22;51319;52.162;5.302;2023-03-23T00:19:53;11.30;99.90
43999;DHT22;51319;52.162;5.302;2023-03-23T00:22:19;11.30;99.90
43999;DHT22;51319;52.162;5.302;2023-03-23T00:24:47;11.40;99.90
43999;DHT22;51319;52.162;5.302;2023-03-23T00:27:16;11.40;99.90
43999;DHT22;51319;52.162;5.302;2023-03-23T00:29:43;11.40;99.90
43999;DHT22;51319;52.162;5.302;2023-03-23T00:32:11;11.40;99.90
43999;DHT22;51319;52.162;5.302;2023-03-23T00:34:41;11.40;99.90
43999;DHT22;51319;52.162;5.302;2023-03-23T00:37:09;11.40;99.90
43999;DHT22;51319;52.162;5.302;2023-03-23T00:39:35;11.40;99.90
43999;DHT22;51319;52.162;5.302;2023-03-23T00:42:02;11.40;99.90
43999;DHT22;51319;52.162;5.302;2023-03-23T00:44:29;11.40;99.90
43999;DHT22;51319;52.162;5.302;2023-03-23T00:46:56;11.40;99.90
43999;DHT22;51319;52.162;5.302;2023-03-23T00:49:23;11.40;99.90
43999;DHT22;51319;52.162;5.302;2023-03-23T00:51:54;11.40;99.90
43999;DHT22;51319;52.162;5.302;2023-03-23T00:54:22;11.50;99.90
43999;DHT22;51319;52.162;5.302;2023-03-23T00:56:49;11.50;99.90
43999;DHT22;51319;52.162;5.302;2023-03-23T00:59:15;11.50;99.90
43999;DHT22;51319;52.162;5.302;2023-03-23T01:01:41;11.50;99.90
43999;DHT22;51319;52.162;5.302;2023-03-23T01:04:07;11.60;99.90
43999;DHT22;51319;52.162;5.302;2023-03-23T01:06:37;11.60;99.90
43999;DHT22;51319;52.162;5.302;2023-03-23T01:09:07;11.60;99.90
43999;DHT22;51319;52.162;5.302;2023-03-23T01:11:34;11.60;99.90
43999;DHT22;51319;52.162;5.302;2023-03-23T01:14:01;11.60;99.90
43999;DHT22;51319;52.162;5.302;2023-03-23T01:16:27;11.60;99.90
43999;DHT22;51319;52.162;5.302;2023-03-23T01:18:53;11.60;99.90
43999;DHT22;51319;52.162;5.302;2023-03-23T01:21:20;11.60;99.90
43999;DHT22;51319;52.162;5.302;2023-03-23T01:23:47;11.60;99.90
43999;DHT22;51319;52.162;5.302;2023-03-23T01:26:15;11.60;99.90
43999;DHT22;51319;52.162;5.302;2023-03-23T01:28:41;11.70;99.90
43999;DHT22;51319;52.162;5.302;2023-03-23T01:31:10;11.70;99.90
43999;DHT22;51319;52.162;5.302;2023-03-23T01:33:40;11.60;99.90
43999;DHT22;51319;52.162;5.302;2023-03-23T01:36:10;11.60;99.90
43999;DHT22;51319;52.162;5.302;2023-03-23T01:38:36;11.70;99.90
43999;DHT22;51319;52.162;5.302;2023-03-23T01:41:02;11.70;99.90
43999;DHT22;51319;52.162;5.302;2023-03-23T01:43:28;11.70;99.90
43999;DHT22;51319;52.162;5.302;2023-03-23T01:45:54;11.60;99.90
43999;DHT22;51319;52.162;5.302;2023-03-23T01:48:26;11.70;99.90
43999;DHT22;51319;52.162;5.302;2023-03-23T01:51:12;11.70;99.90
43999;DHT22;51319;52.162;5.302;2023-03-23T01:54:02;11.70;99.90
43999;DHT22;51319;52.162;5.302;2023-03-23T01:56:36;11.70;99.90
43999;DHT22;51319;52.162;5.302;2023-03-23T01:59:09;11.70;99.90
43999;DHT22;51319;52.162;5.302;2023-03-23T02:01:36;11.70;99.90
43999;DHT22;51319;52.162;5.302;2023-03-23T02:04:05;11.70;99.90
43999;DHT22;51319;52.162;5.302;2023-03-23T02:06:31;11.80;99.90
43999;DHT22;51319;52.162;5.302;2023-03-23T02:08:57;11.70;99.90
43999;DHT22;51319;52.162;5.302;2023-03-23T02:11:23;11.70;99.90
43999;DHT22;51319;52.162;5.302;2023-03-23T02:13:50;11.70;99.90
43999;DHT22;51319;52.162;5.302;2023-03-23T02:16:43;11.70;99.90
43999;DHT22;51319;52.162;5.302;2023-03-23T02:28:24;11.80;99.90
43999;DHT22;51319;52.162;5.302;2023-03-23T02:34:05;11.80;99.90
43999;DHT22;51319;52.162;5.302;2023-03-23T02:36:39;11.80;99.90
43999;DHT22;51319;52.162;5.302;2023-03-23T02:39:19;11.80;99.90
43999;DHT22;51319;52.162;5.302;2023-03-23T02:41:56;11.90;99.90
43999;DHT22;51319;52.162;5.302;2023-03-23T02:44:24;11.90;99.90
43999;DHT22;51319;52.162;5.302;2023-03-23T02:46:56;11.90;99.90
43999;DHT22;51319;52.162;5.302;2023-03-23T02:49:24;11.90;99.90
43999;DHT22;51319;52.162;5.302;2023-03-23T02:51:52;11.90;99.90
43999;DHT22;51319;52.162;5.302;2023-03-23T02:54:20;11.90;99.90
43999;DHT22;51319;52.162;5.302;2023-03-23T02:56:48;12.00;99.90
43999;DHT22;51319;52.162;5.302;2023-03-23T02:59:16;12.00;99.90
43999;DHT22;51319;52.162;5.302;2023-03-23T03:04:12;12.00;99.90
43999;DHT22;51319;52.162;5.302;2023-03-23T03:11:49;12.00;99.90
43999;DHT22;51319;52.162;5.302;2023-03-23T03:14:26;12.00;99.90
43999;DHT22;51319;52.162;5.302;2023-03-23T03:17:03;12.00;99.90
43999;DHT22;51319;52.162;5.302;2023-03-23T03:19:35;12.00;99.90
43999;DHT22;51319;52.162;5.302;2023-03-23T03:22:03;12.00;99.90
43999;DHT22;51319;52.162;5.302;2023-03-23T03:24:31;12.00;99.90
43999;DHT22;51319;52.162;5.302;2023-03-23T03:26:59;12.10;99.90
43999;DHT22;51319;52.162;5.302;2023-03-23T03:29:30;12.10;99.80
43999;DHT22;51319;52.162;5.302;2023-03-23T03:31:58;12.10;99.60
43999;DHT22;51319;52.162;5.302;2023-03-23T03:34:27;12.10;99.50
43999;DHT22;51319;52.162;5.302;2023-03-23T03:36:54;12.10;99.40
43999;DHT22;51319;52.162;5.302;2023-03-23T03:39:24;12.10;99.30
43999;DHT22;51319;52.162;5.302;2023-03-23T03:41:50;12.10;99.30
43999;DHT22;51319;52.162;5.302;2023-03-23T03:44:16;12.10;99.10
43999;DHT22;51319;52.162;5.302;2023-03-23T03:46:42;12.10;98.90
43999;DHT22;51319;52.162;5.302;2023-03-23T03:49:10;12.10;98.70
43999;DHT22;51319;52.162;5.302;2023-03-23T03:51:39;12.10;98.70
43999;DHT22;51319;52.162;5.302;2023-03-23T03:54:05;12.20;98.50
43999;DHT22;51319;52.162;5.302;2023-03-23T03:56:31;12.20;98.50
43999;DHT22;51319;52.162;5.302;2023-03-23T03:59:02;12.20;98.30
43999;DHT22;51319;52.162;5.302;2023-03-23T04:01:27;12.20;98.30
43999;DHT22;51319;52.162;5.302;2023-03-23T04:03:54;12.20;98.20
43999;DHT22;51319;52.162;5.302;2023-03-23T04:06:20;12.20;98.00
43999;DHT22;51319;52.162;5.302;2023-03-23T04:08:47;12.20;97.90
43999;DHT22;51319;52.162;5.302;2023-03-23T04:11:14;12.30;97.80
43999;DHT22;51319;52.162;5.302;2023-03-23T04:13:40;12.30;97.60
43999;DHT22;51319;52.162;5.302;2023-03-23T04:16:07;12.30;97.60
43999;DHT22;51319;52.162;5.302;2023-03-23T04:18:33;12.30;97.60
43999;DHT22;51319;52.162;5.302;2023-03-23T04:21:02;12.30;97.50
43999;DHT22;51319;52.162;5.302;2023-03-23T04:23:31;12.30;97.50
43999;DHT22;51319;52.162;5.302;2023-03-23T04:25:59;12.30;97.30
43999;DHT22;51319;52.162;5.302;2023-03-23T04:28:26;12.30;97.10
43999;DHT22;51319;52.162;5.302;2023-03-23T04:30:53;12.30;97.00
43999;DHT22;51319;52.162;5.302;2023-03-23T04:33:25;12.30;96.80
43999;DHT22;51319;52.162;5.302;2023-03-23T04:35:52;12.30;96.40
43999;DHT22;51319;52.162;5.302;2023-03-23T04:38:19;12.40;96.40
43999;DHT22;51319;52.162;5.302;2023-03-23T04:40:46;12.40;96.10
43999;DHT22;51319;52.162;5.302;2023-03-23T04:43:13;12.30;96.00
43999;DHT22;51319;52.162;5.302;2023-03-23T04:45:40;12.30;95.90
43999;DHT22;51319;52.162;5.302;2023-03-23T04:48:11;12.30;95.70
43999;DHT22;51319;52.162;5.302;2023-03-23T04:50:38;12.30;95.70
43999;DHT22;51319;52.162;5.302;2023-03-23T04:53:04;12.30;95.50
43999;DHT22;51319;52.162;5.302;2023-03-23T04:55:35;12.30;95.40
43999;DHT22;51319;52.162;5.302;2023-03-23T04:58:05;12.30;95.20
43999;DHT22;51319;52.162;5.302;2023-03-23T05:00:35;12.30;95.10
43999;DHT22;51319;52.162;5.302;2023-03-23T05:03:02;12.30;95.10
43999;DHT22;51319;52.162;5.302;2023-03-23T05:05:28;12.30;95.10
43999;DHT22;51319;52.162;5.302;2023-03-23T05:07:57;12.30;95.10
43999;DHT22;51319;52.162;5.302;2023-03-23T05:10:23;12.20;95.40
43999;DHT22;51319;52.162;5.302;2023-03-23T05:12:49;12.10;96.00
43999;DHT22;51319;52.162;5.302;2023-03-23T05:15:16;12.10;96.40
43999;DHT22;51319;52.162;5.302;2023-03-23T05:17:42;12.00;96.80
43999;DHT22;51319;52.162;5.302;2023-03-23T05:20:14;12.00;97.10
43999;DHT22;51319;52.162;5.302;2023-03-23T05:22:42;11.90;97.50
43999;DHT22;51319;52.162;5.302;2023-03-23T05:25:10;11.80;97.90
43999;DHT22;51319;52.162;5.302;2023-03-23T05:27:37;11.70;98.50
43999;DHT22;51319;52.162;5.302;2023-03-23T05:30:04;11.60;99.20
43999;DHT22;51319;52.162;5.302;2023-03-23T05:32:30;11.50;99.90
43999;DHT22;51319;52.162;5.302;2023-03-23T05:34:58;11.40;99.90
43999;DHT22;51319;52.162;5.302;2023-03-23T05:37:26;11.10;99.90
43999;DHT22;51319;52.162;5.302;2023-03-23T05:39:54;10.90;99.90
43999;DHT22;51319;52.162;5.302;2023-03-23T05:42:23;10.80;99.90
43999;DHT22;51319;52.162;5.302;2023-03-23T05:44:50;10.70;99.90
43999;DHT22;51319;52.162;5.302;2023-03-23T05:47:17;10.60;99.90
43999;DHT22;51319;52.162;5.302;2023-03-23T05:49:43;10.60;99.90
43999;DHT22;51319;52.162;5.302;2023-03-23T05:52:08;10.60;99.90
43999;DHT22;51319;52.162;5.302;2023-03-23T05:54:34;10.60;99.90
43999;DHT22;51319;52.162;5.302;2023-03-23T05:57:01;10.60;99.90
43999;DHT22;51319;52.162;5.302;2023-03-23T05:59:27;10.60;99.90
43999;DHT22;51319;52.162;5.302;2023-03-23T06:01:53;10.60;99.90
43999;DHT22;51319;52.162;5.302;2023-03-23T06:04:23;10.60;99.90
43999;DHT22;51319;52.162;5.302;2023-03-23T06:06:51;10.60;99.90
43999;DHT22;51319;52.162;5.302;2023-03-23T06:09:18;10.60;99.90
43999;DHT22;51319;52.162;5.302;2023-03-23T06:11:44;10.50;99.90
43999;DHT22;51319;52.162;5.302;2023-03-23T06:14:10;10.50;99.90
43999;DHT22;51319;52.162;5.302;2023-03-23T06:16:36;10.50;99.90
43999;DHT22;51319;52.162;5.302;2023-03-23T06:19:02;10.50;99.90
43999;DHT22;51319;52.162;5.302;2023-03-23T06:21:32;10.50;99.90
43999;DHT22;51319;52.162;5.302;2023-03-23T06:23:58;10.50;99.90
43999;DHT22;51319;52.162;5.302;2023-03-23T06:26:34;10.50;99.90
43999;DHT22;51319;52.162;5.302;2023-03-23T06:29:00;10.50;99.90
43999;DHT22;51319;52.162;5.302;2023-03-23T06:31:27;10.50;99.90
43999;DHT22;51319;52.162;5.302;2023-03-23T06:33:53;10.50;99.90
43999;DHT22;51319;52.162;5.302;2023-03-23T06:36:19;10.50;99.90
43999;DHT22;51319;52.162;5.302;2023-03-23T06:38:45;10.50;99.90
43999;DHT22;51319;52.162;5.302;2023-03-23T06:41:12;10.50;99.90
43999;DHT22;51319;52.162;5.302;2023-03-23T06:43:38;10.50;99.90
43999;DHT22;51319;52.162;5.302;2023-03-23T06:46:07;10.40;99.90
43999;DHT22;51319;52.162;5.302;2023-03-23T06:48:33;10.50;99.90
43999;DHT22;51319;52.162;5.302;2023-03-23T06:50:59;10.50;99.90
43999;DHT22;51319;52.162;5.302;2023-03-23T06:53:25;10.50;99.90
43999;DHT22;51319;52.162;5.302;2023-03-23T06:55:52;10.60;99.90
43999;DHT22;51319;52.162;5.302;2023-03-23T06:58:19;10.50;99.90
43999;DHT22;51319;52.162;5.302;2023-03-23T07:00:44;10.60;99.90
43999;DHT22;51319;52.162;5.302;2023-03-23T07:03:11;10.70;99.90
43999;DHT22;51319;52.162;5.302;2023-03-23T07:05:37;10.70;99.90
43999;DHT22;51319;52.162;5.302;2023-03-23T07:08:03;10.80;99.90
43999;DHT22;51319;52.162;5.302;2023-03-23T07:10:29;10.80;99.90
43999;DHT22;51319;52.162;5.302;2023-03-23T07:12:55;10.80;99.90
43999;DHT22;51319;52.162;5.302;2023-03-23T07:15:23;10.90;99.90
43999;DHT22;51319;52.162;5.302;2023-03-23T07:17:48;10.90;99.90
43999;DHT22;51319;52.162;5.302;2023-03-23T07:20:14;10.90;99.90
43999;DHT22;51319;52.162;5.302;2023-03-23T07:22:40;10.90;99.90
43999;DHT22;51319;52.162;5.302;2023-03-23T07:25:07;10.90;99.90
43999;DHT22;51319;52.162;5.302;2023-03-23T07:27:33;11.00;99.90
43999;DHT22;51319;52.162;5.302;2023-03-23T07:30:00;11.00;99.90
43999;DHT22;51319;52.162;5.302;2023-03-23T07:32:26;11.20;99.90
43999;DHT22;51319;52.162;5.302;2023-03-23T07:34:52;11.40;99.90
43999;DHT22;51319;52.162;5.302;2023-03-23T07:37:18;11.80;99.90
43999;DHT22;51319;52.162;5.302;2023-03-23T07:39:44;11.90;99.90
43999;DHT22;51319;52.162;5.302;2023-03-23T07:42:10;11.90;99.90
43999;DHT22;51319;52.162;5.302;2023-03-23T07:44:37;11.90;99.90
43999;DHT22;51319;52.162;5.302;2023-03-23T07:47:03;11.90;99.90
43999;DHT22;51319;52.162;5.302;2023-03-23T07:49:28;11.80;99.90
43999;DHT22;51319;52.162;5.302;2023-03-23T07:51:56;11.80;99.90
43999;DHT22;51319;52.162;5.302;2023-03-23T07:54:23;11.70;99.90
43999;DHT22;51319;52.162;5.302;2023-03-23T07:56:49;11.80;99.90
43999;DHT22;51319;52.162;5.302;2023-03-23T07:59:16;11.90;99.90
43999;DHT22;51319;52.162;5.302;2023-03-23T08:01:42;12.00;99.90
43999;DHT22;51319;52.162;5.302;2023-03-23T08:04:08;12.00;99.90
43999;DHT22;51319;52.162;5.302;2023-03-23T08:06:35;12.00;99.90
43999;DHT22;51319;52.162;5.302;2023-03-23T08:09:02;12.10;99.90
43999;DHT22;51319;52.162;5.302;2023-03-23T08:11:34;12.20;99.90
43999;DHT22;51319;52.162;5.302;2023-03-23T08:14:00;12.30;99.90
43999;DHT22;51319;52.162;5.302;2023-03-23T08:16:26;12.40;99.90
43999;DHT22;51319;52.162;5.302;2023-03-23T08:18:53;12.20;99.90
43999;DHT22;51319;52.162;5.302;2023-03-23T08:21:18;12.10;99.90
43999;DHT22;51319;52.162;5.302;2023-03-23T08:23:45;12.10;99.90
43999;DHT22;51319;52.162;5.302;2023-03-23T08:26:11;12.20;99.90
43999;DHT22;51319;52.162;5.302;2023-03-23T08:28:37;12.40;99.90
43999;DHT22;51319;52.162;5.302;2023-03-23T08:31:08;12.50;99.90
43999;DHT22;51319;52.162;5.302;2023-03-23T08:33:36;12.50;99.90
43999;DHT22;51319;52.162;5.302;2023-03-23T08:36:02;12.60;99.90
43999;DHT22;51319;52.162;5.302;2023-03-23T08:38:29;12.60;99.90
43999;DHT22;51319;52.162;5.302;2023-03-23T08:41:01;12.90;99.90
43999;DHT22;51319;52.162;5.302;2023-03-23T08:43:28;13.10;99.90
43999;DHT22;51319;52.162;5.302;2023-03-23T08:45:54;12.90;99.90
43999;DHT22;51319;52.162;5.302;2023-03-23T08:48:20;12.90;99.90
43999;DHT22;51319;52.162;5.302;2023-03-23T08:50:47;12.80;99.90
43999;DHT22;51319;52.162;5.302;2023-03-23T08:53:12;12.80;99.90
43999;DHT22;51319;52.162;5.302;2023-03-23T08:55:38;12.80;99.90
43999;DHT22;51319;52.162;5.302;2023-03-23T08:58:05;12.90;99.90
43999;DHT22;51319;52.162;5.302;2023-03-23T09:00:31;13.00;99.90
43999;DHT22;51319;52.162;5.302;2023-03-23T09:02:58;13.80;99.90
43999;DHT22;51319;52.162;5.302;2023-03-23T09:05:26;15.50;99.90
43999;DHT22;51319;52.162;5.302;2023-03-23T09:07:55;16.00;99.90
43999;DHT22;51319;52.162;5.302;2023-03-23T09:10:25;15.80;99.90
43999;DHT22;51319;52.162;5.302;2023-03-23T09:12:52;15.50;99.90
43999;DHT22;51319;52.162;5.302;2023-03-23T09:15:19;16.70;99.90
43999;DHT22;51319;52.162;5.302;2023-03-23T09:17:47;18.10;99.10
43999;DHT22;51319;52.162;5.302;2023-03-23T09:20:16;19.00;96.00
43999;DHT22;51319;52.162;5.302;2023-03-23T09:22:51;18.30;95.00
43999;DHT22;51319;52.162;5.302;2023-03-23T09:25:20;17.60;95.20
43999;DHT22;51319;52.162;5.302;2023-03-23T09:27:49;18.80;96.50
43999;DHT22;51319;52.162;5.302;2023-03-23T09:30:19;19.40;94.40
43999;DHT22;51319;52.162;5.302;2023-03-23T09:32:46;20.50;91.90
43999;DHT22;51319;52.162;5.302;2023-03-23T09:35:14;21.50;88.20
43999;DHT22;51319;52.162;5.302;2023-03-23T09:37:42;22.50;86.10
43999;DHT22;51319;52.162;5.302;2023-03-23T09:40:16;23.60;84.30
43999;DHT22;51319;52.162;5.302;2023-03-23T09:48:11;22.20;80.10
43999;DHT22;51319;52.162;5.302;2023-03-23T09:50:42;23.30;80.00
43999;DHT22;51319;52.162;5.302;2023-03-23T09:53:17;22.60;76.50
43999;DHT22;51319;52.162;5.302;2023-03-23T09:55:44;22.20;77.00
43999;DHT22;51319;52.162;5.302;2023-03-23T09:58:22;21.70;76.60
43999;DHT22;51319;52.162;5.302;2023-03-23T10:01:07;21.60;77.60
43999;DHT22;51319;52.162;5.302;2023-03-23T10:03:42;21.40;76.50
43999;DHT22;51319;52.162;5.302;2023-03-23T10:06:16;20.40;78.20
43999;DHT22;51319;52.162;5.302;2023-03-23T10:08:52;20.60;79.00
43999;DHT22;51319;52.162;5.302;2023-03-23T10:19:51;19.70;82.60
43999;DHT22;51319;52.162;5.302;2023-03-23T10:22:34;20.80;81.60
43999;DHT22;51319;52.162;5.302;2023-03-23T10:27:45;22.00;75.00
43999;DHT22;51319;52.162;5.302;2023-03-23T10:35:56;22.60;72.80
43999;DHT22;51319;52.162;5.302;2023-03-23T10:38:49;24.10;73.10
43999;DHT22;51319;52.162;5.302;2023-03-23T10:41:19;24.40;71.80
43999;DHT22;51319;52.162;5.302;2023-03-23T10:43:46;25.10;68.70
43999;DHT22;51319;52.162;5.302;2023-03-23T10:49:10;25.00;67.00
43999;DHT22;51319;52.162;5.302;2023-03-23T10:51:43;23.90;66.80
43999;DHT22;51319;52.162;5.302;2023-03-23T10:54:10;23.40;70.60
43999;DHT22;51319;52.162;5.302;2023-03-23T10:56:42;22.40;70.10
43999;DHT22;51319;52.162;5.302;2023-03-23T10:59:26;22.00;69.30
43999;DHT22;51319;52.162;5.302;2023-03-23T11:01:55;22.10;70.60
43999;DHT22;51319;52.162;5.302;2023-03-23T11:04:22;22.10;72.40
43999;DHT22;51319;52.162;5.302;2023-03-23T11:06:52;22.30;71.90
43999;DHT22;51319;52.162;5.302;2023-03-23T11:09:21;23.90;71.60
43999;DHT22;51319;52.162;5.302;2023-03-23T11:11:54;24.90;70.90
43999;DHT22;51319;52.162;5.302;2023-03-23T11:14:34;26.00;68.00
43999;DHT22;51319;52.162;5.302;2023-03-23T11:17:05;26.00;64.20
43999;DHT22;51319;52.162;5.302;2023-03-23T11:19:36;26.20;63.90
43999;DHT22;51319;52.162;5.302;2023-03-23T11:24:32;22.90;74.00
43999;DHT22;51319;52.162;5.302;2023-03-23T11:26:59;21.40;70.90
43999;DHT22;51319;52.162;5.302;2023-03-23T11:29:27;21.30;72.20
43999;DHT22;51319;52.162;5.302;2023-03-23T11:32:04;21.30;71.70
43999;DHT22;51319;52.162;5.302;2023-03-23T11:34:44;22.80;73.20
43999;DHT22;51319;52.162;5.302;2023-03-23T11:37:41;24.30;68.50
43999;DHT22;51319;52.162;5.302;2023-03-23T11:42:42;26.00;68.20
43999;DHT22;51319;52.162;5.302;2023-03-23T11:45:32;26.00;63.40
43999;DHT22;51319;52.162;5.302;2023-03-23T11:51:08;25.00;59.80
43999;DHT22;51319;52.162;5.302;2023-03-23T11:53:57;24.10;61.50
43999;DHT22;51319;52.162;5.302;2023-03-23T11:56:36;22.90;63.40
43999;DHT22;51319;52.162;5.302;2023-03-23T11:59:09;21.60;63.70
43999;DHT22;51319;52.162;5.302;2023-03-23T12:01:46;20.60;65.50
43999;DHT22;51319;52.162;5.302;2023-03-23T12:15:25;18.00;76.90
43999;DHT22;51319;52.162;5.302;2023-03-23T12:20:53;17.70;79.10
43999;DHT22;51319;52.162;5.302;2023-03-23T12:23:59;17.50;80.10
43999;DHT22;51319;52.162;5.302;2023-03-23T12:26:29;19.30;80.80
43999;DHT22;51319;52.162;5.302;2023-03-23T12:34:58;21.30;70.60
43999;DHT22;51319;52.162;5.302;2023-03-23T12:43:44;20.50;73.90
43999;DHT22;51319;52.162;5.302;2023-03-23T12:46:38;20.80;70.60
43999;DHT22;51319;52.162;5.302;2023-03-23T12:51:55;22.10;67.20
43999;DHT22;51319;52.162;5.302;2023-03-23T12:54:36;21.20;66.30
43999;DHT22;51319;52.162;5.302;2023-03-23T12:57:20;21.20;67.80
43999;DHT22;51319;52.162;5.302;2023-03-23T13:03:13;20.90;68.80
43999;DHT22;51319;52.162;5.302;2023-03-23T13:05:41;20.10;67.80
43999;DHT22;51319;52.162;5.302;2023-03-23T13:08:22;19.70;69.70
43999;DHT22;51319;52.162;5.302;2023-03-23T13:10:51;19.30;69.10
43999;DHT22;51319;52.162;5.302;2023-03-23T13:13:24;18.90;71.00
43999;DHT22;51319;52.162;5.302;2023-03-23T13:18:47;18.20;71.60
43999;DHT22;51319;52.162;5.302;2023-03-23T13:21:25;18.10;73.00
43999;DHT22;51319;52.162;5.302;2023-03-23T13:26:26;17.80;73.40
43999;DHT22;51319;52.162;5.302;2023-03-23T13:29:18;17.80;74.10
43999;DHT22;51319;52.162;5.302;2023-03-23T13:31:46;18.20;74.40
43999;DHT22;51319;52.162;5.302;2023-03-23T13:34:29;18.90;73.90
43999;DHT22;51319;52.162;5.302;2023-03-23T13:36:56;19.70;71.10
43999;DHT22;51319;52.162;5.302;2023-03-23T14:03:01;18.70;68.20
43999;DHT22;51319;52.162;5.302;2023-03-23T14:05:36;18.40;67.40
43999;DHT22;51319;52.162;5.302;2023-03-23T14:10:44;18.00;69.10
43999;DHT22;51319;52.162;5.302;2023-03-23T14:15:45;17.40;70.60
43999;DHT22;51319;52.162;5.302;2023-03-23T14:20:48;15.70;79.90
43999;DHT22;51319;52.162;5.302;2023-03-23T14:23:16;14.80;87.10
43999;DHT22;51319;52.162;5.302;2023-03-23T14:25:43;14.80;92.50
43999;DHT22;51319;52.162;5.302;2023-03-23T14:28:20;15.00;94.60
43999;DHT22;51319;52.162;5.302;2023-03-23T14:30:52;15.20;95.30
43999;DHT22;51319;52.162;5.302;2023-03-23T14:33:19;15.10;95.50
43999;DHT22;51319;52.162;5.302;2023-03-23T14:35:45;15.00;96.30
43999;DHT22;51319;52.162;5.302;2023-03-23T14:38:19;14.90;96.90
43999;DHT22;51319;52.162;5.302;2023-03-23T14:40:47;14.70;97.50
43999;DHT22;51319;52.162;5.302;2023-03-23T14:43:16;14.80;98.90
43999;DHT22;51319;52.162;5.302;2023-03-23T14:45:43;15.00;99.70
43999;DHT22;51319;52.162;5.302;2023-03-23T14:48:13;15.00;99.70
43999;DHT22;51319;52.162;5.302;2023-03-23T14:50:48;15.00;99.90
43999;DHT22;51319;52.162;5.302;2023-03-23T14:53:24;14.80;99.90
43999;DHT22;51319;52.162;5.302;2023-03-23T14:55:53;14.60;99.90
43999;DHT22;51319;52.162;5.302;2023-03-23T14:58:22;14.40;99.90
43999;DHT22;51319;52.162;5.302;2023-03-23T15:01:05;14.30;99.90
43999;DHT22;51319;52.162;5.302;2023-03-23T15:07:00;14.30;99.90
43999;DHT22;51319;52.162;5.302;2023-03-23T15:09:27;14.30;99.90
43999;DHT22;51319;52.162;5.302;2023-03-23T15:11:59;14.20;99.90
43999;DHT22;51319;52.162;5.302;2023-03-23T15:14:32;14.20;99.90
43999;DHT22;51319;52.162;5.302;2023-03-23T15:17:00;14.10;99.90
43999;DHT22;51319;52.162;5.302;2023-03-23T15:19:33;14.00;99.90
43999;DHT22;51319;52.162;5.302;2023-03-23T15:22:23;13.90;98.70
43999;DHT22;51319;52.162;5.302;2023-03-23T15:25:11;13.90;98.00
43999;DHT22;51319;52.162;5.302;2023-03-23T15:27:42;13.80;97.90
43999;DHT22;51319;52.162;5.302;2023-03-23T15:32:52;13.80;96.90
43999;DHT22;51319;52.162;5.302;2023-03-23T15:35:22;13.90;96.30
43999;DHT22;51319;52.162;5.302;2023-03-23T15:37:52;13.80;95.40
43999;DHT22;51319;52.162;5.302;2023-03-23T15:40:23;13.90;95.00
43999;DHT22;51319;52.162;5.302;2023-03-23T15:43:05;13.80;94.50
43999;DHT22;51319;52.162;5.302;2023-03-23T15:45:31;13.90;94.20
43999;DHT22;51319;52.162;5.302;2023-03-23T15:48:09;14.10;93.90
43999;DHT22;51319;52.162;5.302;2023-03-23T15:50:36;14.30;93.20
43999;DHT22;51319;52.162;5.302;2023-03-23T15:53:19;14.40;93.20
43999;DHT22;51319;52.162;5.302;2023-03-23T15:55:45;14.50;92.80
43999;DHT22;51319;52.162;5.302;2023-03-23T15:58:13;14.50;92.20
43999;DHT22;51319;52.162;5.302;2023-03-23T16:00:41;14.50;92.10
43999;DHT22;51319;52.162;5.302;2023-03-23T16:03:17;14.60;92.10
43999;DHT22;51319;52.162;5.302;2023-03-23T16:05:45;14.70;91.90
43999;DHT22;51319;52.162;5.302;2023-03-23T16:08:12;14.80;91.70
43999;DHT22;51319;52.162;5.302;2023-03-23T16:10:38;14.80;91.50
43999;DHT22;51319;52.162;5.302;2023-03-23T16:13:07;14.70;91.70
43999;DHT22;51319;52.162;5.302;2023-03-23T16:15:33;14.70;91.70
43999;DHT22;51319;52.162;5.302;2023-03-23T16:18:00;14.60;91.60
43999;DHT22;51319;52.162;5.302;2023-03-23T16:20:29;14.60;91.40
43999;DHT22;51319;52.162;5.302;2023-03-23T16:22:56;14.70;91.40
43999;DHT22;51319;52.162;5.302;2023-03-23T16:25:23;14.70;91.20
43999;DHT22;51319;52.162;5.302;2023-03-23T16:27:52;14.60;90.90
43999;DHT22;51319;52.162;5.302;2023-03-23T16:30:26;14.50;90.60
43999;DHT22;51319;52.162;5.302;2023-03-23T16:32:53;14.50;90.50
43999;DHT22;51319;52.162;5.302;2023-03-23T16:35:23;14.60;90.60
43999;DHT22;51319;52.162;5.302;2023-03-23T16:37:53;14.60;90.70
43999;DHT22;51319;52.162;5.302;2023-03-23T16:40:35;14.60;90.70
43999;DHT22;51319;52.162;5.302;2023-03-23T16:43:03;14.60;90.90
43999;DHT22;51319;52.162;5.302;2023-03-23T16:45:36;14.60;90.70
43999;DHT22;51319;52.162;5.302;2023-03-23T16:48:04;14.60;90.40
43999;DHT22;51319;52.162;5.302;2023-03-23T16:50:32;14.60;90.60
43999;DHT22;51319;52.162;5.302;2023-03-23T16:52:59;14.60;90.70
43999;DHT22;51319;52.162;5.302;2023-03-23T16:55:27;14.50;90.80
43999;DHT22;51319;52.162;5.302;2023-03-23T16:57:57;14.50;90.90
43999;DHT22;51319;52.162;5.302;2023-03-23T17:00:42;14.50;91.00
43999;DHT22;51319;52.162;5.302;2023-03-23T17:03:09;14.60;91.10
43999;DHT22;51319;52.162;5.302;2023-03-23T17:05:36;14.60;91.10
43999;DHT22;51319;52.162;5.302;2023-03-23T17:08:04;14.60;90.80
43999;DHT22;51319;52.162;5.302;2023-03-23T17:10:31;14.60;90.90
43999;DHT22;51319;52.162;5.302;2023-03-23T17:12:59;14.60;91.00
43999;DHT22;51319;52.162;5.302;2023-03-23T17:15:26;14.50;91.20
43999;DHT22;51319;52.162;5.302;2023-03-23T17:17:53;14.40;90.80
43999;DHT22;51319;52.162;5.302;2023-03-23T17:20:21;14.40;91.00
43999;DHT22;51319;52.162;5.302;2023-03-23T17:22:48;14.40;91.20
43999;DHT22;51319;52.162;5.302;2023-03-23T17:25:15;14.30;91.10
43999;DHT22;51319;52.162;5.302;2023-03-23T17:27:42;14.30;91.10
43999;DHT22;51319;52.162;5.302;2023-03-23T17:30:10;14.30;91.30
43999;DHT22;51319;52.162;5.302;2023-03-23T17:32:38;14.30;91.00
43999;DHT22;51319;52.162;5.302;2023-03-23T17:35:05;14.30;90.90
43999;DHT22;51319;52.162;5.302;2023-03-23T17:37:33;14.40;90.90
43999;DHT22;51319;52.162;5.302;2023-03-23T17:40:02;14.30;91.00
43999;DHT22;51319;52.162;5.302;2023-03-23T17:42:29;14.30;90.90
43999;DHT22;51319;52.162;5.302;2023-03-23T17:44:56;14.30;91.00
43999;DHT22;51319;52.162;5.302;2023-03-23T17:47:24;14.30;91.00
43999;DHT22;51319;52.162;5.302;2023-03-23T17:49:51;14.20;91.00
43999;DHT22;51319;52.162;5.302;2023-03-23T17:52:18;14.20;91.00